Time;durP1;ratioP1;P1;durP2;ratioP2;P2;SDS_P1;SDS_P2;PMS_P1;PMS_P2;Temp;Humidity;BMP_temperature;BMP_pressure;BME280_temperature;BME280_humidity;BME280_pressure;Samples;Min_cycle;Max_cycle;Signal;HPM_P1;HPM_P2
2022/04/01 00:01:41;;;;;;;;;;;8.00;91.50;;;;;;5045518;28;19939;-76
2022/04/01 00:04:07;;;;;;;;;;;8.00;91.60;;;;;;5048647;28;19979;-76
2022/04/01 00:06:34;;;;;;;;;;;8.00;91.60;;;;;;5044301;28;19933;-77
2022/04/01 00:09:00;;;;;;;;;;;8.00;91.50;;;;;;5046868;28;20308;-76
2022/04/01 00:11:27;;;;;;;;;;;8.00;91.50;;;;;;5048037;28;20304;-75
2022/04/01 00:13:53;;;;;;;;;;;8.00;91.50;;;;;;5043730;28;20281;-76
2022/04/01 00:16:20;;;;;;;;;;;8.00;91.50;;;;;;5046501;28;19951;-76
2022/04/01 00:18:48;;;;;;;;;;;8.00;91.60;;;;;;5044878;28;20015;-76
2022/04/01 00:21:14;;;;;;;;;;;7.90;91.50;;;;;;5040192;28;19932;-77
2022/04/01 00:23:41;;;;;;;;;;;7.90;91.50;;;;;;5041766;28;19963;-75
2022/04/01 00:26:07;;;;;;;;;;;7.90;91.50;;;;;;5042208;28;19936;-75
2022/04/01 00:28:34;;;;;;;;;;;7.90;91.50;;;;;;5039562;28;19936;-76
2022/04/01 00:31:01;;;;;;;;;;;7.90;91.50;;;;;;5041142;28;19928;-75
2022/04/01 00:33:27;;;;;;;;;;;7.90;91.60;;;;;;5040389;28;19939;-75
2022/04/01 00:35:55;;;;;;;;;;;7.90;91.60;;;;;;5043532;28;20335;-76
2022/04/01 00:38:22;;;;;;;;;;;7.90;91.60;;;;;;5041424;28;19936;-76
2022/04/01 00:40:51;;;;;;;;;;;7.80;91.50;;;;;;5044701;28;19932;-77
2022/04/01 00:43:17;;;;;;;;;;;7.90;91.60;;;;;;5045267;28;20063;-75
2022/04/01 00:45:44;;;;;;;;;;;7.80;91.50;;;;;;5046512;28;19933;-76
2022/04/01 00:48:11;;;;;;;;;;;7.80;91.50;;;;;;5048705;28;19929;-76
2022/04/01 00:50:37;;;;;;;;;;;7.80;91.50;;;;;;5045396;28;20019;-76
2022/04/01 00:53:06;;;;;;;;;;;7.80;91.50;;;;;;5044035;28;20538;-76
2022/04/01 00:55:33;;;;;;;;;;;7.80;91.60;;;;;;5045771;28;19929;-75
2022/04/01 00:58:00;;;;;;;;;;;7.80;91.50;;;;;;5048787;28;19967;-75
2022/04/01 01:00:28;;;;;;;;;;;7.80;91.50;;;;;;5045571;28;19933;-75
2022/04/01 01:02:55;;;;;;;;;;;7.70;91.50;;;;;;5048400;28;19932;-76
2022/04/01 01:05:21;;;;;;;;;;;7.70;91.50;;;;;;5047061;28;20053;-76
2022/04/01 01:07:48;;;;;;;;;;;7.70;91.50;;;;;;5046069;28;19964;-76
2022/04/01 01:10:18;;;;;;;;;;;7.80;91.50;;;;;;5048349;28;19936;-76
2022/04/01 01:12:45;;;;;;;;;;;7.70;91.40;;;;;;5046484;28;19929;-77
2022/04/01 01:15:13;;;;;;;;;;;7.70;91.40;;;;;;5047012;28;20435;-75
2022/04/01 01:17:40;;;;;;;;;;;7.70;91.40;;;;;;5044847;28;19929;-76
2022/04/01 01:20:12;;;;;;;;;;;7.70;91.40;;;;;;5044374;28;19936;-76
2022/04/01 01:22:39;;;;;;;;;;;7.70;91.40;;;;;;5048345;28;19928;-75
2022/04/01 01:25:09;;;;;;;;;;;7.70;91.40;;;;;;5047968;28;19929;-77
2022/04/01 01:27:36;;;;;;;;;;;7.60;91.30;;;;;;5051342;28;21577;-76
2022/04/01 01:30:03;;;;;;;;;;;7.60;91.30;;;;;;5046255;28;19924;-76
2022/04/01 01:32:32;;;;;;;;;;;7.60;91.30;;;;;;5048354;28;20278;-76
2022/04/01 01:35:17;;;;;;;;;;;7.60;91.30;;;;;;5045979;28;19943;-76
2022/04/01 01:37:44;;;;;;;;;;;7.60;91.30;;;;;;5045883;28;19932;-76
2022/04/01 01:40:12;;;;;;;;;;;7.60;91.30;;;;;;5046690;28;20471;-75
2022/04/01 01:42:39;;;;;;;;;;;7.50;91.30;;;;;;5045038;28;19940;-76
2022/04/01 01:45:06;;;;;;;;;;;7.60;91.30;;;;;;5046900;28;19925;-74
2022/04/01 01:47:32;;;;;;;;;;;7.60;91.30;;;;;;5049882;28;20314;-75
2022/04/01 01:55:30;;;;;;;;;;;7.50;91.20;;;;;;5051406;28;20399;-74
2022/04/01 01:57:56;;;;;;;;;;;7.50;91.10;;;;;;5048741;28;19925;-75
2022/04/01 02:00:23;;;;;;;;;;;7.50;91.20;;;;;;5053284;28;19964;-75
2022/04/01 02:02:50;;;;;;;;;;;7.50;91.20;;;;;;5051187;28;19925;-75
2022/04/01 02:05:17;;;;;;;;;;;7.50;91.20;;;;;;5051939;28;19925;-75
2022/04/01 02:07:47;;;;;;;;;;;7.40;91.10;;;;;;5050814;28;19968;-75
2022/04/01 02:10:13;;;;;;;;;;;7.40;91.10;;;;;;5052549;28;19928;-75
2022/04/01 02:12:42;;;;;;;;;;;7.40;91.10;;;;;;5045628;28;19972;-74
2022/04/01 02:15:10;;;;;;;;;;;7.40;91.10;;;;;;5046728;28;19954;-75
2022/04/01 02:17:37;;;;;;;;;;;7.40;91.10;;;;;;5050920;28;20389;-75
2022/04/01 02:20:05;;;;;;;;;;;7.40;91.10;;;;;;5049705;28;19928;-75
2022/04/01 02:22:32;;;;;;;;;;;7.40;91.10;;;;;;5048533;28;19929;-75
2022/04/01 02:24:58;;;;;;;;;;;7.40;91.00;;;;;;5045580;28;19929;-75
2022/04/01 02:27:25;;;;;;;;;;;7.30;91.00;;;;;;5054942;28;19933;-75
2022/04/01 02:29:53;;;;;;;;;;;7.30;91.00;;;;;;5051562;28;20012;-75
2022/04/01 02:32:20;;;;;;;;;;;7.30;91.00;;;;;;5053356;28;19925;-75
2022/04/01 02:34:48;;;;;;;;;;;7.30;91.00;;;;;;5050466;28;21056;-75
2022/04/01 02:37:14;;;;;;;;;;;7.30;91.00;;;;;;5053402;28;20393;-75
2022/04/01 02:39:41;;;;;;;;;;;7.30;91.00;;;;;;5047652;28;20031;-75
2022/04/01 02:42:08;;;;;;;;;;;7.20;91.00;;;;;;5048630;28;19929;-74
2022/04/01 02:44:35;;;;;;;;;;;7.30;91.00;;;;;;5051908;28;19932;-75
2022/04/01 02:47:04;;;;;;;;;;;7.30;91.00;;;;;;5053665;28;20012;-75
2022/04/01 02:49:30;;;;;;;;;;;7.30;91.00;;;;;;5053975;28;19925;-75
2022/04/01 02:51:57;;;;;;;;;;;7.30;91.00;;;;;;5048594;28;19929;-75
2022/04/01 02:54:23;;;;;;;;;;;7.30;91.00;;;;;;5048875;28;19940;-75
2022/04/01 02:56:50;;;;;;;;;;;7.20;91.00;;;;;;5048894;28;19932;-75
2022/04/01 02:59:17;;;;;;;;;;;7.30;91.00;;;;;;5051457;28;19932;-75
2022/04/01 03:01:43;;;;;;;;;;;7.20;90.90;;;;;;5048477;28;19929;-75
2022/04/01 03:04:12;;;;;;;;;;;7.20;90.90;;;;;;5053037;28;19936;-74
2022/04/01 03:06:38;;;;;;;;;;;7.20;90.90;;;;;;5048517;28;19932;-75
2022/04/01 03:09:05;;;;;;;;;;;7.20;90.90;;;;;;5049334;28;20147;-75
2022/04/01 03:11:32;;;;;;;;;;;7.20;90.90;;;;;;5048536;28;19925;-75
2022/04/01 03:13:58;;;;;;;;;;;7.20;90.90;;;;;;5045631;28;19932;-75
2022/04/01 03:16:25;;;;;;;;;;;7.20;90.80;;;;;;5047159;28;19928;-75
2022/04/01 03:18:57;;;;;;;;;;;7.20;90.80;;;;;;5047934;28;19982;-75
2022/04/01 03:21:25;;;;;;;;;;;7.10;90.80;;;;;;5047724;28;19928;-75
2022/04/01 03:23:51;;;;;;;;;;;7.20;90.80;;;;;;5048956;28;19939;-75
2022/04/01 03:26:18;;;;;;;;;;;7.10;90.70;;;;;;5054026;28;20424;-75
2022/04/01 03:28:46;;;;;;;;;;;7.10;90.70;;;;;;5048581;28;20037;-75
2022/04/01 03:31:14;;;;;;;;;;;7.10;90.70;;;;;;5048387;28;20003;-74
2022/04/01 03:33:41;;;;;;;;;;;7.10;90.60;;;;;;5049364;28;19929;-75
2022/04/01 03:36:09;;;;;;;;;;;7.10;90.60;;;;;;5046990;28;19925;-75
2022/04/01 03:38:37;;;;;;;;;;;7.10;90.60;;;;;;5040957;28;19939;-75
2022/04/01 03:41:05;;;;;;;;;;;7.10;90.60;;;;;;5049274;28;19928;-75
2022/04/01 03:43:34;;;;;;;;;;;7.10;90.60;;;;;;5047819;28;19979;-75
2022/04/01 03:46:04;;;;;;;;;;;7.10;90.60;;;;;;5048470;28;20353;-75
2022/04/01 03:48:35;;;;;;;;;;;7.00;90.60;;;;;;5048857;28;19929;-75
2022/04/01 03:51:04;;;;;;;;;;;7.00;90.50;;;;;;5049695;28;19929;-75
2022/04/01 03:53:32;;;;;;;;;;;7.00;90.60;;;;;;5049885;28;19928;-75
2022/04/01 03:56:00;;;;;;;;;;;7.00;90.60;;;;;;5051864;28;19935;-75
2022/04/01 03:58:29;;;;;;;;;;;7.00;90.60;;;;;;5048383;28;20380;-74
2022/04/01 04:00:58;;;;;;;;;;;7.00;90.60;;;;;;5047307;28;19932;-75
2022/04/01 04:03:24;;;;;;;;;;;7.00;90.60;;;;;;5047702;28;19925;-75
2022/04/01 04:05:51;;;;;;;;;;;7.00;90.60;;;;;;5048963;28;19983;-75
2022/04/01 04:08:19;;;;;;;;;;;7.00;90.50;;;;;;5055587;28;19970;-75
2022/04/01 04:10:46;;;;;;;;;;;6.90;90.50;;;;;;5044734;28;20407;-75
2022/04/01 04:13:15;;;;;;;;;;;6.90;90.50;;;;;;5046668;28;20408;-74
2022/04/01 04:15:50;;;;;;;;;;;6.90;90.50;;;;;;5049043;28;20008;-75
2022/04/01 04:18:17;;;;;;;;;;;6.90;90.50;;;;;;5053537;28;19940;-74
2022/04/01 04:20:49;;;;;;;;;;;6.90;90.50;;;;;;5053536;28;19933;-75
2022/04/01 04:23:17;;;;;;;;;;;6.90;90.50;;;;;;5053984;28;19932;-75
2022/04/01 04:25:47;;;;;;;;;;;6.90;90.50;;;;;;5056228;28;19925;-75
2022/04/01 04:28:17;;;;;;;;;;;6.90;90.50;;;;;;5050745;28;19933;-74
2022/04/01 04:30:49;;;;;;;;;;;6.90;90.50;;;;;;5054461;28;19928;-75
2022/04/01 04:33:17;;;;;;;;;;;6.90;90.50;;;;;;5054110;28;19929;-75
2022/04/01 04:35:45;;;;;;;;;;;6.90;90.50;;;;;;5057774;28;20389;-75
2022/04/01 04:38:13;;;;;;;;;;;6.90;90.50;;;;;;5054237;28;20392;-74
2022/04/01 04:40:42;;;;;;;;;;;6.80;90.50;;;;;;5054287;28;19935;-74
2022/04/01 04:43:08;;;;;;;;;;;6.90;90.50;;;;;;5054132;28;20566;-74
2022/04/01 04:45:36;;;;;;;;;;;6.90;90.50;;;;;;5055045;28;19936;-74
2022/04/01 04:48:04;;;;;;;;;;;6.80;90.50;;;;;;5062285;28;19924;-74
2022/04/01 04:50:31;;;;;;;;;;;6.80;90.50;;;;;;5055678;28;19943;-74
2022/04/01 04:52:58;;;;;;;;;;;6.80;90.50;;;;;;5052324;28;19928;-75
2022/04/01 04:55:25;;;;;;;;;;;6.80;90.50;;;;;;5053903;28;19929;-74
2022/04/01 04:57:52;;;;;;;;;;;6.80;90.50;;;;;;5052315;28;19928;-74
2022/04/01 05:00:20;;;;;;;;;;;6.80;90.50;;;;;;5056910;28;19925;-74
2022/04/01 05:02:55;;;;;;;;;;;6.80;90.50;;;;;;5055771;28;20206;-75
2022/04/01 05:05:25;;;;;;;;;;;6.80;90.40;;;;;;5055856;28;19925;-75
2022/04/01 05:08:00;;;;;;;;;;;6.80;90.40;;;;;;5055770;28;19947;-75
2022/04/01 05:10:30;;;;;;;;;;;6.80;90.40;;;;;;5055102;28;19928;-75
2022/04/01 05:12:59;;;;;;;;;;;6.80;90.40;;;;;;5055301;28;19928;-75
2022/04/01 05:15:27;;;;;;;;;;;6.70;90.30;;;;;;5053610;28;19933;-75
2022/04/01 05:18:01;;;;;;;;;;;6.70;90.30;;;;;;5055185;28;19929;-75
2022/04/01 05:20:28;;;;;;;;;;;6.70;90.30;;;;;;5050199;28;20024;-75
2022/04/01 05:22:59;;;;;;;;;;;6.70;90.30;;;;;;5053846;28;19929;-75
2022/04/01 05:25:27;;;;;;;;;;;6.70;90.30;;;;;;5056443;28;19987;-75
2022/04/01 05:27:54;;;;;;;;;;;6.70;90.30;;;;;;5051821;28;19936;-74
2022/04/01 05:30:25;;;;;;;;;;;6.70;90.30;;;;;;5052108;28;19971;-74
2022/04/01 05:32:58;;;;;;;;;;;6.70;90.30;;;;;;5052764;28;19936;-74
2022/04/01 05:35:26;;;;;;;;;;;6.70;90.30;;;;;;5050994;28;20023;-75
2022/04/01 05:37:54;;;;;;;;;;;6.70;90.30;;;;;;5049275;28;19928;-75
2022/04/01 05:40:21;;;;;;;;;;;6.60;90.20;;;;;;5049978;28;19929;-74
2022/04/01 05:42:48;;;;;;;;;;;6.70;90.20;;;;;;5049063;28;19928;-74
2022/04/01 05:45:16;;;;;;;;;;;6.70;90.20;;;;;;5046650;28;19925;-73
2022/04/01 05:47:43;;;;;;;;;;;6.60;90.20;;;;;;5050779;28;19925;-74
2022/04/01 05:50:11;;;;;;;;;;;6.60;90.20;;;;;;5047234;28;20506;-78
2022/04/01 05:52:39;;;;;;;;;;;6.60;90.20;;;;;;5045305;28;19933;-76
2022/04/01 05:55:07;;;;;;;;;;;6.60;88.30;;;;;;5044117;28;19968;-76
2022/04/01 05:57:34;;;;;;;;;;;6.50;88.80;;;;;;5050716;28;19928;-75
2022/04/01 06:00:00;;;;;;;;;;;6.40;89.20;;;;;;5051963;28;20027;-75
2022/04/01 06:02:37;;;;;;;;;;;6.40;89.40;;;;;;5048819;28;19935;-75
2022/04/01 06:05:06;;;;;;;;;;;6.40;89.60;;;;;;5053274;28;19932;-75
2022/04/01 06:07:37;;;;;;;;;;;6.40;89.90;;;;;;5047679;28;21167;-75
2022/04/01 06:10:08;;;;;;;;;;;6.40;89.80;;;;;;5050140;28;19928;-76
2022/04/01 06:12:38;;;;;;;;;;;6.40;89.70;;;;;;5048072;28;20401;-76
2022/04/01 06:15:11;;;;;;;;;;;6.40;89.50;;;;;;5048760;28;19928;-75
2022/04/01 06:17:42;;;;;;;;;;;6.40;89.50;;;;;;5048346;28;19937;-75
2022/04/01 06:20:09;;;;;;;;;;;6.50;89.40;;;;;;5051071;28;19937;-76
2022/04/01 06:22:48;;;;;;;;;;;6.40;89.20;;;;;;5048054;28;20441;-76
2022/04/01 06:25:20;;;;;;;;;;;6.40;89.20;;;;;;5048514;28;19968;-75
2022/04/01 06:27:47;;;;;;;;;;;6.40;89.20;;;;;;5051991;28;20071;-76
2022/04/01 06:30:15;;;;;;;;;;;6.40;89.10;;;;;;5050197;28;19929;-78
2022/04/01 06:32:49;;;;;;;;;;;6.40;89.60;;;;;;5050117;28;19939;-74
2022/04/01 06:35:19;;;;;;;;;;;6.40;89.00;;;;;;5047168;28;19935;-74
2022/04/01 06:37:53;;;;;;;;;;;6.40;89.20;;;;;;5044783;28;19975;-74
2022/04/01 06:40:22;;;;;;;;;;;6.50;89.70;;;;;;5046181;28;19928;-75
2022/04/01 06:42:50;;;;;;;;;;;6.50;90.00;;;;;;5048429;28;20320;-74
2022/04/01 06:45:17;;;;;;;;;;;6.50;90.00;;;;;;5044882;28;19959;-74
2022/04/01 06:47:45;;;;;;;;;;;6.60;90.10;;;;;;5050527;28;19928;-74
2022/04/01 06:50:12;;;;;;;;;;;6.60;90.00;;;;;;5048971;28;19932;-74
2022/04/01 06:52:39;;;;;;;;;;;6.60;89.80;;;;;;5047863;28;19982;-75
2022/04/01 06:55:08;;;;;;;;;;;6.70;89.70;;;;;;5051893;28;19928;-74
2022/04/01 06:57:35;;;;;;;;;;;6.70;89.50;;;;;;5048621;28;19928;-74
2022/04/01 07:00:01;;;;;;;;;;;6.70;89.30;;;;;;5051915;28;19924;-74
2022/04/01 07:02:28;;;;;;;;;;;6.80;89.30;;;;;;5047641;28;20387;-74
2022/04/01 07:04:55;;;;;;;;;;;6.80;89.20;;;;;;5051159;28;19936;-75
2022/04/01 07:07:21;;;;;;;;;;;6.80;89.00;;;;;;5046828;28;19932;-75
2022/04/01 07:09:48;;;;;;;;;;;6.80;88.80;;;;;;5049589;28;19936;-74
2022/04/01 07:12:17;;;;;;;;;;;6.90;88.80;;;;;;5047069;28;19932;-74
2022/04/01 07:14:44;;;;;;;;;;;6.90;88.70;;;;;;5046230;28;19932;-74
2022/04/01 07:17:10;;;;;;;;;;;6.90;88.60;;;;;;5047500;28;19924;-74
2022/04/01 07:19:37;;;;;;;;;;;6.90;88.50;;;;;;5047991;28;20028;-74
2022/04/01 07:22:05;;;;;;;;;;;6.90;88.40;;;;;;5046932;28;19925;-74
2022/04/01 07:24:32;;;;;;;;;;;6.90;88.30;;;;;;5048973;28;19955;-74
2022/04/01 07:27:00;;;;;;;;;;;6.90;88.20;;;;;;5047071;28;20298;-75
2022/04/01 07:29:28;;;;;;;;;;;6.90;88.00;;;;;;5040187;28;20009;-75
2022/04/01 07:34:41;;;;;;;;;;;6.90;87.80;;;;;;5039874;28;19936;-75
2022/04/01 07:37:09;;;;;;;;;;;6.90;87.70;;;;;;5041232;28;19929;-75
2022/04/01 07:39:36;;;;;;;;;;;6.90;87.70;;;;;;5041544;28;20042;-75
2022/04/01 07:42:03;;;;;;;;;;;6.90;87.60;;;;;;5048063;28;19928;-74
2022/04/01 07:44:31;;;;;;;;;;;6.90;87.60;;;;;;5048201;28;20668;-73
2022/04/01 07:46:58;;;;;;;;;;;6.90;87.40;;;;;;5051979;28;19925;-75
2022/04/01 07:49:26;;;;;;;;;;;7.00;87.40;;;;;;5049436;28;19936;-75
2022/04/01 07:51:53;;;;;;;;;;;6.90;87.50;;;;;;5044221;28;19940;-74
2022/04/01 07:54:19;;;;;;;;;;;6.90;87.30;;;;;;5040989;28;20015;-75
2022/04/01 07:56:46;;;;;;;;;;;6.90;85.40;;;;;;5046597;28;19932;-75
2022/04/01 07:59:15;;;;;;;;;;;6.90;85.60;;;;;;5049567;28;19925;-75
2022/04/01 08:01:43;;;;;;;;;;;6.80;85.90;;;;;;5046454;28;19926;-74
2022/04/01 08:04:09;;;;;;;;;;;6.80;86.20;;;;;;5051378;28;20274;-76
2022/04/01 08:06:36;;;;;;;;;;;6.70;86.40;;;;;;5050078;28;19928;-75
2022/04/01 08:09:03;;;;;;;;;;;6.70;86.60;;;;;;5051743;28;19925;-76
2022/04/01 08:11:29;;;;;;;;;;;6.70;86.70;;;;;;5052331;28;19924;-74
2022/04/01 08:13:56;;;;;;;;;;;6.60;86.80;;;;;;5055063;28;19929;-75
2022/04/01 08:16:23;;;;;;;;;;;6.60;87.00;;;;;;5057523;28;19936;-75
2022/04/01 08:18:51;;;;;;;;;;;6.60;87.80;;;;;;5048454;28;19929;-75
2022/04/01 08:21:18;;;;;;;;;;;6.60;87.30;;;;;;5058796;28;19928;-75
2022/04/01 08:23:44;;;;;;;;;;;6.60;87.40;;;;;;5043915;28;19929;-75
2022/04/01 08:26:12;;;;;;;;;;;6.60;87.30;;;;;;5056627;28;19935;-76
2022/04/01 08:28:39;;;;;;;;;;;6.60;87.40;;;;;;5056616;28;19936;-75
2022/04/01 08:31:07;;;;;;;;;;;6.50;87.40;;;;;;5048037;28;19925;-76
2022/04/01 08:33:34;;;;;;;;;;;6.50;87.40;;;;;;5052012;28;19932;-76
2022/04/01 08:36:02;;;;;;;;;;;6.50;87.50;;;;;;5057717;28;20015;-75
2022/04/01 08:38:29;;;;;;;;;;;6.40;87.50;;;;;;5048155;28;19928;-75
2022/04/01 08:40:56;;;;;;;;;;;6.40;87.40;;;;;;5047661;28;19929;-76
2022/04/01 08:43:26;;;;;;;;;;;6.50;87.40;;;;;;5049068;28;20400;-75
2022/04/01 08:45:53;;;;;;;;;;;6.40;86.70;;;;;;5043186;28;19940;-76
2022/04/01 08:48:20;;;;;;;;;;;6.50;87.30;;;;;;5048348;28;19933;-75
2022/04/01 08:50:47;;;;;;;;;;;6.50;87.70;;;;;;5047705;28;19929;-76
2022/04/01 08:53:15;;;;;;;;;;;6.50;88.10;;;;;;5049114;28;19931;-76
2022/04/01 08:55:45;;;;;;;;;;;6.60;88.60;;;;;;5047495;28;20471;-76
2022/04/01 08:58:12;;;;;;;;;;;6.60;88.80;;;;;;5048481;28;20246;-74
2022/04/01 09:00:38;;;;;;;;;;;6.70;88.90;;;;;;5048795;28;19937;-76
2022/04/01 09:03:07;;;;;;;;;;;6.70;88.80;;;;;;5049648;28;20402;-75
2022/04/01 09:05:34;;;;;;;;;;;6.80;88.60;;;;;;5053030;28;19961;-75
2022/04/01 09:08:02;;;;;;;;;;;6.90;88.30;;;;;;5058012;28;19959;-76
2022/04/01 09:10:30;;;;;;;;;;;6.90;88.20;;;;;;5056569;28;19963;-76
2022/04/01 09:12:57;;;;;;;;;;;6.90;87.90;;;;;;5051625;28;19929;-76
2022/04/01 09:15:24;;;;;;;;;;;7.00;87.70;;;;;;5057976;28;19971;-75
2022/04/01 09:17:51;;;;;;;;;;;7.00;87.50;;;;;;5058092;28;20478;-76
2022/04/01 09:20:18;;;;;;;;;;;7.10;87.40;;;;;;5052803;28;20389;-75
2022/04/01 09:22:45;;;;;;;;;;;7.10;87.30;;;;;;5052948;28;20381;-76
2022/04/01 09:25:13;;;;;;;;;;;7.10;87.10;;;;;;5057332;28;20385;-76
2022/04/01 09:27:41;;;;;;;;;;;7.10;86.80;;;;;;5051976;28;19924;-75
2022/04/01 09:30:10;;;;;;;;;;;7.10;86.70;;;;;;5050426;28;19929;-76
2022/04/01 09:32:37;;;;;;;;;;;7.20;86.60;;;;;;5048760;28;20035;-75
2022/04/01 09:35:04;;;;;;;;;;;7.10;86.40;;;;;;5052233;28;19932;-75
2022/04/01 09:37:36;;;;;;;;;;;7.10;86.20;;;;;;5052400;28;19929;-75
2022/04/01 09:40:03;;;;;;;;;;;7.20;86.10;;;;;;5048999;28;19936;-75
2022/04/01 09:42:30;;;;;;;;;;;7.20;85.90;;;;;;5046748;28;20289;-75
2022/04/01 09:45:00;;;;;;;;;;;7.20;85.70;;;;;;5041659;28;19966;-75
2022/04/01 09:47:26;;;;;;;;;;;7.20;85.50;;;;;;5044513;28;19929;-75
2022/04/01 09:49:54;;;;;;;;;;;7.20;85.50;;;;;;5046930;28;19936;-75
2022/04/01 09:52:22;;;;;;;;;;;7.20;85.80;;;;;;5047486;28;19929;-75
2022/04/01 09:54:50;;;;;;;;;;;7.20;85.30;;;;;;5046867;28;20200;-75
2022/04/01 09:57:17;;;;;;;;;;;7.20;85.20;;;;;;5050397;28;19933;-75
2022/04/01 09:59:44;;;;;;;;;;;7.20;85.00;;;;;;5045726;28;19928;-75
2022/04/01 10:02:12;;;;;;;;;;;7.20;85.00;;;;;;5041529;28;19932;-75
2022/04/01 10:04:38;;;;;;;;;;;7.20;85.00;;;;;;5042207;28;20799;-75
2022/04/01 10:07:05;;;;;;;;;;;7.20;84.80;;;;;;5044590;28;19932;-75
2022/04/01 10:09:32;;;;;;;;;;;7.20;84.70;;;;;;5044026;28;19929;-75
2022/04/01 10:12:01;;;;;;;;;;;7.20;84.60;;;;;;5044368;28;19933;-75
2022/04/01 10:14:28;;;;;;;;;;;7.10;84.50;;;;;;5041853;28;19963;-75
2022/04/01 10:16:55;;;;;;;;;;;7.10;84.60;;;;;;5043739;28;19929;-75
2022/04/01 10:19:25;;;;;;;;;;;7.10;84.60;;;;;;5044011;28;19929;-75
2022/04/01 10:21:52;;;;;;;;;;;7.10;84.70;;;;;;5042680;28;19947;-75
2022/04/01 10:24:35;;;;;;;;;;;7.10;84.70;;;;;;5048796;28;19928;-75
2022/04/01 10:27:07;;;;;;;;;;;7.10;84.60;;;;;;5042118;28;19933;-75
2022/04/01 10:29:34;;;;;;;;;;;7.10;84.60;;;;;;5045370;28;20023;-75
2022/04/01 10:32:15;;;;;;;;;;;7.10;84.50;;;;;;5043688;28;19933;-75
2022/04/01 10:34:47;;;;;;;;;;;7.10;84.50;;;;;;5044066;28;19933;-75
2022/04/01 10:37:14;;;;;;;;;;;7.10;84.50;;;;;;5040655;28;20100;-76
2022/04/01 10:39:47;;;;;;;;;;;7.10;84.60;;;;;;5040434;28;19952;-75
2022/04/01 10:42:14;;;;;;;;;;;7.10;84.50;;;;;;5041248;28;20359;-75
2022/04/01 10:44:48;;;;;;;;;;;7.10;84.50;;;;;;5038975;28;20558;-75
2022/04/01 10:47:15;;;;;;;;;;;7.10;84.50;;;;;;5041133;28;20822;-75
2022/04/01 10:52:29;;;;;;;;;;;7.10;84.30;;;;;;5039748;28;19936;-76
2022/04/01 10:55:09;;;;;;;;;;;7.10;84.40;;;;;;5046117;28;20025;-76
2022/04/01 10:57:39;;;;;;;;;;;7.00;84.30;;;;;;5045307;28;19929;-75
2022/04/01 11:00:07;;;;;;;;;;;7.00;84.20;;;;;;5042507;28;19951;-74
2022/04/01 11:02:34;;;;;;;;;;;7.00;84.30;;;;;;5042159;28;20369;-75
2022/04/01 11:05:21;;;;;;;;;;;7.00;84.30;;;;;;5049605;28;19928;-75
2022/04/01 11:08:09;;;;;;;;;;;7.00;84.30;;;;;;5045545;28;20294;-74
2022/04/01 11:10:35;;;;;;;;;;;7.00;84.40;;;;;;5042456;28;20306;-75
2022/04/01 11:13:02;;;;;;;;;;;7.00;84.40;;;;;;5041586;28;20249;-75
2022/04/01 11:15:28;;;;;;;;;;;7.00;84.50;;;;;;5041986;28;19975;-75
2022/04/01 11:18:09;;;;;;;;;;;7.00;84.50;;;;;;5043971;28;19928;-75
2022/04/01 11:20:39;;;;;;;;;;;6.90;84.50;;;;;;5045481;28;20345;-76
2022/04/01 11:23:14;;;;;;;;;;;6.90;84.50;;;;;;5042248;28;20038;-75
2022/04/01 11:25:53;;;;;;;;;;;6.90;85.40;;;;;;5047489;28;19937;-75
2022/04/01 11:28:20;;;;;;;;;;;6.90;84.70;;;;;;5044762;28;20061;-75
2022/04/01 11:31:03;;;;;;;;;;;6.90;84.80;;;;;;5044533;28;19928;-75
2022/04/01 11:33:29;;;;;;;;;;;6.90;84.90;;;;;;5042750;28;19929;-74
2022/04/01 11:35:57;;;;;;;;;;;6.90;84.80;;;;;;5047843;28;19932;-75
2022/04/01 11:38:26;;;;;;;;;;;6.90;84.80;;;;;;5042694;28;19933;-75
2022/04/01 11:40:53;;;;;;;;;;;6.90;84.80;;;;;;5040110;28;19929;-75
2022/04/01 11:43:21;;;;;;;;;;;6.80;84.70;;;;;;5044530;28;20027;-75
2022/04/01 11:45:50;;;;;;;;;;;6.80;84.80;;;;;;5043467;28;19935;-74
2022/04/01 11:48:17;;;;;;;;;;;6.80;84.90;;;;;;5046446;28;19978;-75
2022/04/01 11:50:45;;;;;;;;;;;6.80;84.90;;;;;;5044369;28;20487;-75
2022/04/01 11:53:19;;;;;;;;;;;6.80;84.70;;;;;;5043867;28;19928;-75
2022/04/01 11:55:47;;;;;;;;;;;6.80;84.80;;;;;;5041634;28;19933;-76
2022/04/01 11:58:13;;;;;;;;;;;6.80;84.90;;;;;;5042828;28;19929;-73
2022/04/01 12:00:40;;;;;;;;;;;6.70;84.80;;;;;;5042996;28;19932;-74
2022/04/01 12:03:07;;;;;;;;;;;6.70;84.90;;;;;;5039586;28;20385;-75
2022/04/01 12:05:34;;;;;;;;;;;6.70;84.80;;;;;;5037660;28;20511;-74
2022/04/01 12:10:53;;;;;;;;;;;6.70;85.00;;;;;;5039364;28;19998;-75
2022/04/01 12:13:20;;;;;;;;;;;6.70;85.00;;;;;;5040395;28;20016;-76
2022/04/01 12:15:47;;;;;;;;;;;6.60;85.00;;;;;;5042803;28;20304;-75
2022/04/01 12:18:15;;;;;;;;;;;6.60;84.90;;;;;;5042306;28;20512;-74
2022/04/01 12:20:42;;;;;;;;;;;6.60;85.10;;;;;;5043728;28;19940;-76
2022/04/01 12:23:09;;;;;;;;;;;6.70;85.20;;;;;;5041778;28;19933;-75
2022/04/01 12:25:36;;;;;;;;;;;6.60;85.20;;;;;;5047287;28;19928;-75
2022/04/01 12:28:05;;;;;;;;;;;6.60;85.30;;;;;;5040619;28;19932;-75
2022/04/01 12:30:32;;;;;;;;;;;6.70;85.40;;;;;;5043819;28;19994;-75
2022/04/01 12:33:01;;;;;;;;;;;6.60;85.50;;;;;;5045299;28;19929;-74
2022/04/01 12:35:27;;;;;;;;;;;6.60;85.50;;;;;;5045331;28;20380;-73
2022/04/01 12:38:04;;;;;;;;;;;6.60;85.60;;;;;;5049517;28;19928;-77
2022/04/01 12:40:34;;;;;;;;;;;6.60;85.60;;;;;;5045397;28;20609;-75
2022/04/01 12:43:00;;;;;;;;;;;6.60;85.70;;;;;;5047835;28;20071;-77
2022/04/01 12:45:28;;;;;;;;;;;6.60;85.80;;;;;;5047700;28;19944;-74
2022/04/01 12:47:56;;;;;;;;;;;6.50;85.70;;;;;;5049621;28;19940;-75
2022/04/01 12:50:37;;;;;;;;;;;6.50;85.60;;;;;;5049619;28;20010;-75
2022/04/01 12:53:10;;;;;;;;;;;6.50;85.70;;;;;;5049031;28;19932;-76
2022/04/01 12:55:37;;;;;;;;;;;6.50;85.80;;;;;;5047074;28;19936;-75
2022/04/01 12:58:04;;;;;;;;;;;6.40;85.80;;;;;;5047537;28;20396;-75
2022/04/01 13:00:33;;;;;;;;;;;6.40;85.80;;;;;;5047619;28;20162;-76
2022/04/01 13:03:01;;;;;;;;;;;6.40;85.80;;;;;;5048374;28;19929;-76
2022/04/01 13:05:28;;;;;;;;;;;6.40;85.90;;;;;;5047464;28;19972;-75
2022/04/01 13:07:55;;;;;;;;;;;6.40;85.80;;;;;;5048366;28;19979;-76
2022/04/01 13:10:23;;;;;;;;;;;6.40;85.90;;;;;;5049300;28;20432;-76
2022/04/01 13:12:52;;;;;;;;;;;6.40;85.90;;;;;;5047984;28;19929;-73
2022/04/01 13:15:20;;;;;;;;;;;6.40;86.00;;;;;;5050785;28;20031;-75
2022/04/01 13:17:49;;;;;;;;;;;6.40;86.10;;;;;;5048576;28;19929;-75
2022/04/01 13:20:17;;;;;;;;;;;6.40;86.10;;;;;;5048052;28;20546;-75
2022/04/01 13:22:44;;;;;;;;;;;6.40;86.10;;;;;;5048968;28;19929;-75
2022/04/01 13:25:13;;;;;;;;;;;6.30;86.00;;;;;;5048357;28;20305;-73
2022/04/01 13:27:39;;;;;;;;;;;6.30;86.10;;;;;;5052441;28;19982;-76
2022/04/01 13:30:07;;;;;;;;;;;6.30;85.90;;;;;;5049892;28;19936;-76
2022/04/01 13:32:34;;;;;;;;;;;6.30;86.30;;;;;;5050759;28;19928;-77
2022/04/01 13:35:03;;;;;;;;;;;6.20;86.40;;;;;;5049153;28;20321;-75
2022/04/01 13:37:29;;;;;;;;;;;6.20;86.60;;;;;;5047335;28;19936;-75
2022/04/01 13:39:56;;;;;;;;;;;6.10;86.80;;;;;;5047306;28;19936;-78
2022/04/01 13:42:23;;;;;;;;;;;6.10;86.80;;;;;;5047115;28;19941;-76
2022/04/01 13:44:50;;;;;;;;;;;6.10;86.80;;;;;;5044625;28;19962;-76
2022/04/01 13:47:17;;;;;;;;;;;6.10;86.80;;;;;;5048504;28;19937;-76
2022/04/01 13:49:44;;;;;;;;;;;6.10;86.80;;;;;;5045521;28;19971;-76
2022/04/01 13:52:12;;;;;;;;;;;6.00;86.80;;;;;;5046300;28;20685;-77
2022/04/01 13:54:40;;;;;;;;;;;6.00;86.70;;;;;;5046799;28;20566;-76
2022/04/01 13:57:08;;;;;;;;;;;6.00;86.70;;;;;;5045410;28;19933;-76
2022/04/01 13:59:35;;;;;;;;;;;6.00;86.50;;;;;;5040904;28;20010;-78
2022/04/01 14:02:01;;;;;;;;;;;6.00;87.40;;;;;;5046796;28;19928;-77
2022/04/01 14:04:28;;;;;;;;;;;5.90;86.60;;;;;;5047072;28;19929;-74
2022/04/01 14:06:55;;;;;;;;;;;5.90;86.60;;;;;;5055707;28;19975;-75
2022/04/01 14:09:23;;;;;;;;;;;5.90;86.80;;;;;;5046003;28;19933;-80
2022/04/01 14:11:51;;;;;;;;;;;5.90;87.80;;;;;;5043779;28;19933;-77
2022/04/01 14:14:18;;;;;;;;;;;5.80;88.90;;;;;;5041641;28;20290;-75
2022/04/01 14:16:44;;;;;;;;;;;5.80;90.60;;;;;;5045973;28;19928;-78
2022/04/01 14:19:11;;;;;;;;;;;5.80;91.50;;;;;;5042517;28;20404;-76
2022/04/01 14:21:39;;;;;;;;;;;5.80;92.30;;;;;;5048552;28;19929;-77
2022/04/01 14:24:06;;;;;;;;;;;5.80;93.00;;;;;;5042497;28;20026;-75
2022/04/01 14:26:34;;;;;;;;;;;5.80;93.60;;;;;;5044613;28;19968;-76
2022/04/01 14:31:57;;;;;;;;;;;5.90;94.50;;;;;;5043720;28;20282;-76
2022/04/01 14:34:24;;;;;;;;;;;5.90;94.80;;;;;;5045128;28;19929;-76
2022/04/01 14:36:50;;;;;;;;;;;5.90;95.20;;;;;;5041478;28;19940;-77
2022/04/01 14:39:17;;;;;;;;;;;6.00;95.50;;;;;;5041794;28;20760;-78
2022/04/01 14:41:45;;;;;;;;;;;6.00;95.70;;;;;;5043563;28;19928;-77
2022/04/01 14:44:11;;;;;;;;;;;6.00;95.90;;;;;;5040990;28;20413;-77
2022/04/01 14:46:38;;;;;;;;;;;6.00;96.00;;;;;;5043670;28;20432;-78
2022/04/01 14:49:05;;;;;;;;;;;6.00;96.10;;;;;;5040675;28;19975;-77
2022/04/01 14:51:32;;;;;;;;;;;6.00;96.10;;;;;;5043768;28;19933;-78
2022/04/01 14:53:58;;;;;;;;;;;6.00;96.10;;;;;;5043246;28;19945;-77